La Fayette, Minnesota
Current Conditions -  °F | °C
As of 11:54 PM on Tuesday 21 Oct 2014 (Local Time) from KULM Reporting Station
Clear Clear  
Wind Chill: 44°   Ceiling: Unl
Heat Index: 48°   Visibility: 10mi
Dew Point: 39°   Wind: 10mph
Humidity: 71%   Direction: 150°SSE
Pressure: 30.11"   Gusts: NA
Location:  44.4029°N, 94.4435°W
Report Text: KULM 220454Z AUTO 15009KT 10SM CLR 09/04 A3011 RMK AO2
Loading
Personal Weather Stations






























Interactive Weather Map
Tropical Storm Tracking
New forecast layout! Learn more

10-Day Weather Forecast

Advertisements
Track Severe Weather on mobile